sensor_id;sensor_type;location;lat;lon;timestamp;P1;durP1;ratioP1;P2;durP2;ratioP2
20669;SDS011;10494;50.868;4.180;2023-04-01T00:00:30;14.70;;;2.15;;
20669;SDS011;10494;50.868;4.180;2023-04-01T00:02:55;8.97;;;2.17;;
20669;SDS011;10494;50.868;4.180;2023-04-01T00:05:21;7.30;;;1.88;;
20669;SDS011;10494;50.868;4.180;2023-04-01T00:07:49;13.63;;;2.35;;
20669;SDS011;10494;50.868;4.180;2023-04-01T00:10:15;15.18;;;2.00;;
20669;SDS011;10494;50.868;4.180;2023-04-01T00:12:41;9.07;;;1.90;;
20669;SDS011;10494;50.868;4.180;2023-04-01T00:15:08;11.07;;;2.07;;
20669;SDS011;10494;50.868;4.180;2023-04-01T00:17:35;11.25;;;2.05;;
20669;SDS011;10494;50.868;4.180;2023-04-01T00:20:01;7.28;;;1.80;;
20669;SDS011;10494;50.868;4.180;2023-04-01T00:22:27;11.65;;;1.83;;
20669;SDS011;10494;50.868;4.180;2023-04-01T00:24:53;8.20;;;1.83;;
20669;SDS011;10494;50.868;4.180;2023-04-01T00:27:19;5.20;;;1.65;;
20669;SDS011;10494;50.868;4.180;2023-04-01T00:29:45;8.32;;;1.50;;
20669;SDS011;10494;50.868;4.180;2023-04-01T00:32:13;10.07;;;1.83;;
20669;SDS011;10494;50.868;4.180;2023-04-01T00:34:39;9.45;;;1.70;;
20669;SDS011;10494;50.868;4.180;2023-04-01T00:37:05;7.65;;;1.60;;
20669;SDS011;10494;50.868;4.180;2023-04-01T00:39:32;8.65;;;1.90;;
20669;SDS011;10494;50.868;4.180;2023-04-01T00:41:59;7.15;;;1.58;;
20669;SDS011;10494;50.868;4.180;2023-04-01T00:44:27;4.55;;;1.58;;
20669;SDS011;10494;50.868;4.180;2023-04-01T00:46:56;7.22;;;1.85;;
20669;SDS011;10494;50.868;4.180;2023-04-01T00:49:22;9.07;;;2.10;;
20669;SDS011;10494;50.868;4.180;2023-04-01T00:51:52;8.02;;;1.48;;
20669;SDS011;10494;50.868;4.180;2023-04-01T00:54:20;6.43;;;1.80;;
20669;SDS011;10494;50.868;4.180;2023-04-01T00:56:59;6.30;;;1.50;;
20669;SDS011;10494;50.868;4.180;2023-04-01T00:59:33;6.97;;;1.73;;
20669;SDS011;10494;50.868;4.180;2023-04-01T01:02:02;3.42;;;1.35;;
20669;SDS011;10494;50.868;4.180;2023-04-01T01:04:32;6.93;;;1.58;;
20669;SDS011;10494;50.868;4.180;2023-04-01T01:09:49;3.80;;;1.25;;
20669;SDS011;10494;50.868;4.180;2023-04-01T01:12:31;7.93;;;1.48;;
20669;SDS011;10494;50.868;4.180;2023-04-01T01:27:06;9.55;;;2.70;;
20669;SDS011;10494;50.868;4.180;2023-04-01T01:37:16;10.93;;;3.57;;
20669;SDS011;10494;50.868;4.180;2023-04-01T01:39:46;8.52;;;3.83;;
20669;SDS011;10494;50.868;4.180;2023-04-01T01:42:16;10.70;;;4.13;;
20669;SDS011;10494;50.868;4.180;2023-04-01T01:44:45;11.13;;;4.90;;
20669;SDS011;10494;50.868;4.180;2023-04-01T01:47:13;14.35;;;5.72;;
20669;SDS011;10494;50.868;4.180;2023-04-01T01:49:40;15.60;;;5.63;;
20669;SDS011;10494;50.868;4.180;2023-04-01T01:52:08;12.52;;;5.60;;
20669;SDS011;10494;50.868;4.180;2023-04-01T01:54:33;16.13;;;5.57;;
20669;SDS011;10494;50.868;4.180;2023-04-01T01:57:02;16.60;;;5.25;;
20669;SDS011;10494;50.868;4.180;2023-04-01T01:59:34;13.27;;;5.20;;
20669;SDS011;10494;50.868;4.180;2023-04-01T02:02:02;16.30;;;5.37;;
20669;SDS011;10494;50.868;4.180;2023-04-01T02:04:33;10.32;;;4.63;;
20669;SDS011;10494;50.868;4.180;2023-04-01T02:07:04;15.07;;;4.85;;
20669;SDS011;10494;50.868;4.180;2023-04-01T02:09:33;11.05;;;4.43;;
20669;SDS011;10494;50.868;4.180;2023-04-01T02:12:04;15.75;;;3.75;;
20669;SDS011;10494;50.868;4.180;2023-04-01T02:14:46;9.23;;;3.47;;
20669;SDS011;10494;50.868;4.180;2023-04-01T02:17:23;15.10;;;3.88;;
20669;SDS011;10494;50.868;4.180;2023-04-01T02:19:52;13.63;;;3.33;;
20669;SDS011;10494;50.868;4.180;2023-04-01T02:22:25;15.27;;;3.17;;
20669;SDS011;10494;50.868;4.180;2023-04-01T02:25:07;16.67;;;3.93;;
20669;SDS011;10494;50.868;4.180;2023-04-01T02:27:36;9.30;;;3.85;;
20669;SDS011;10494;50.868;4.180;2023-04-01T02:30:03;17.20;;;3.90;;
20669;SDS011;10494;50.868;4.180;2023-04-01T02:32:29;12.93;;;3.67;;
20669;SDS011;10494;50.868;4.180;2023-04-01T02:34:57;17.87;;;3.97;;
20669;SDS011;10494;50.868;4.180;2023-04-01T02:37:24;8.90;;;3.90;;
20669;SDS011;10494;50.868;4.180;2023-04-01T02:39:50;14.45;;;3.70;;
20669;SDS011;10494;50.868;4.180;2023-04-01T02:42:16;13.75;;;3.28;;
20669;SDS011;10494;50.868;4.180;2023-04-01T02:44:41;15.68;;;4.03;;
20669;SDS011;10494;50.868;4.180;2023-04-01T02:47:07;13.52;;;4.15;;
20669;SDS011;10494;50.868;4.180;2023-04-01T02:49:32;13.82;;;3.97;;
20669;SDS011;10494;50.868;4.180;2023-04-01T02:51:58;15.95;;;3.85;;
20669;SDS011;10494;50.868;4.180;2023-04-01T02:54:23;15.65;;;4.13;;
20669;SDS011;10494;50.868;4.180;2023-04-01T02:56:49;10.53;;;4.53;;
20669;SDS011;10494;50.868;4.180;2023-04-01T02:59:15;13.30;;;4.72;;
20669;SDS011;10494;50.868;4.180;2023-04-01T03:01:40;17.60;;;5.10;;
20669;SDS011;10494;50.868;4.180;2023-04-01T03:04:06;16.10;;;5.07;;
20669;SDS011;10494;50.868;4.180;2023-04-01T03:06:31;10.73;;;5.15;;
20669;SDS011;10494;50.868;4.180;2023-04-01T03:08:57;15.95;;;5.38;;
20669;SDS011;10494;50.868;4.180;2023-04-01T03:11:23;14.53;;;6.27;;
20669;SDS011;10494;50.868;4.180;2023-04-01T03:13:48;16.03;;;6.50;;
20669;SDS011;10494;50.868;4.180;2023-04-01T03:16:14;21.35;;;6.93;;
20669;SDS011;10494;50.868;4.180;2023-04-01T03:18:40;17.57;;;5.90;;
20669;SDS011;10494;50.868;4.180;2023-04-01T03:21:38;19.37;;;7.20;;
20669;SDS011;10494;50.868;4.180;2023-04-01T03:23:57;24.63;;;7.35;;
20669;SDS011;10494;50.868;4.180;2023-04-01T03:26:23;23.83;;;7.17;;
20669;SDS011;10494;50.868;4.180;2023-04-01T03:28:49;22.67;;;6.80;;
20669;SDS011;10494;50.868;4.180;2023-04-01T03:31:15;19.37;;;6.63;;
20669;SDS011;10494;50.868;4.180;2023-04-01T03:33:40;23.50;;;7.45;;
20669;SDS011;10494;50.868;4.180;2023-04-01T03:36:06;17.00;;;7.67;;
20669;SDS011;10494;50.868;4.180;2023-04-01T03:38:36;19.37;;;7.33;;
20669;SDS011;10494;50.868;4.180;2023-04-01T03:41:01;17.88;;;7.38;;
20669;SDS011;10494;50.868;4.180;2023-04-01T03:43:27;17.23;;;7.10;;
20669;SDS011;10494;50.868;4.180;2023-04-01T03:45:53;18.60;;;7.13;;
20669;SDS011;10494;50.868;4.180;2023-04-01T03:48:19;18.13;;;6.77;;
20669;SDS011;10494;50.868;4.180;2023-04-01T03:50:45;18.65;;;6.90;;
20669;SDS011;10494;50.868;4.180;2023-04-01T03:53:12;18.05;;;6.28;;
20669;SDS011;10494;50.868;4.180;2023-04-01T03:55:38;16.83;;;6.03;;
20669;SDS011;10494;50.868;4.180;2023-04-01T03:58:04;19.27;;;6.78;;
20669;SDS011;10494;50.868;4.180;2023-04-01T04:00:31;15.40;;;6.00;;
20669;SDS011;10494;50.868;4.180;2023-04-01T04:02:57;22.37;;;6.80;;
20669;SDS011;10494;50.868;4.180;2023-04-01T04:05:23;14.23;;;6.40;;
20669;SDS011;10494;50.868;4.180;2023-04-01T04:07:50;17.92;;;6.18;;
20669;SDS011;10494;50.868;4.180;2023-04-01T04:10:16;19.00;;;6.05;;
20669;SDS011;10494;50.868;4.180;2023-04-01T04:12:42;9.70;;;5.38;;
20669;SDS011;10494;50.868;4.180;2023-04-01T04:15:08;13.60;;;5.57;;
20669;SDS011;10494;50.868;4.180;2023-04-01T04:17:34;14.10;;;5.45;;
20669;SDS011;10494;50.868;4.180;2023-04-01T04:20:00;11.25;;;4.60;;
20669;SDS011;10494;50.868;4.180;2023-04-01T04:22:26;12.15;;;4.68;;
20669;SDS011;10494;50.868;4.180;2023-04-01T04:24:51;20.30;;;5.88;;
20669;SDS011;10494;50.868;4.180;2023-04-01T04:27:17;11.88;;;4.55;;
20669;SDS011;10494;50.868;4.180;2023-04-01T04:29:42;12.80;;;5.03;;
20669;SDS011;10494;50.868;4.180;2023-04-01T04:32:08;15.07;;;5.00;;
20669;SDS011;10494;50.868;4.180;2023-04-01T04:34:34;10.80;;;5.07;;
20669;SDS011;10494;50.868;4.180;2023-04-01T04:36:59;8.47;;;4.47;;
20669;SDS011;10494;50.868;4.180;2023-04-01T04:39:25;9.52;;;4.00;;
20669;SDS011;10494;50.868;4.180;2023-04-01T04:41:50;7.25;;;4.00;;
20669;SDS011;10494;50.868;4.180;2023-04-01T04:44:16;5.50;;;3.53;;
20669;SDS011;10494;50.868;4.180;2023-04-01T04:46:42;6.35;;;3.53;;
20669;SDS011;10494;50.868;4.180;2023-04-01T04:49:07;9.90;;;4.43;;
20669;SDS011;10494;50.868;4.180;2023-04-01T04:51:33;12.27;;;4.18;;
20669;SDS011;10494;50.868;4.180;2023-04-01T04:54:00;6.18;;;3.28;;
20669;SDS011;10494;50.868;4.180;2023-04-01T04:56:30;8.70;;;3.97;;
20669;SDS011;10494;50.868;4.180;2023-04-01T04:58:55;8.35;;;3.72;;
20669;SDS011;10494;50.868;4.180;2023-04-01T05:01:21;11.63;;;4.30;;
20669;SDS011;10494;50.868;4.180;2023-04-01T05:03:47;11.03;;;4.27;;
20669;SDS011;10494;50.868;4.180;2023-04-01T05:06:14;9.55;;;4.95;;
20669;SDS011;10494;50.868;4.180;2023-04-01T05:08:40;10.68;;;5.10;;
20669;SDS011;10494;50.868;4.180;2023-04-01T05:11:09;10.45;;;5.30;;
20669;SDS011;10494;50.868;4.180;2023-04-01T05:13:39;9.80;;;5.18;;
20669;SDS011;10494;50.868;4.180;2023-04-01T05:16:09;13.60;;;5.65;;
20669;SDS011;10494;50.868;4.180;2023-04-01T05:18:35;12.95;;;5.88;;
20669;SDS011;10494;50.868;4.180;2023-04-01T05:21:01;10.68;;;5.30;;
20669;SDS011;10494;50.868;4.180;2023-04-01T05:23:27;16.13;;;6.05;;
20669;SDS011;10494;50.868;4.180;2023-04-01T05:25:52;18.40;;;6.97;;
20669;SDS011;10494;50.868;4.180;2023-04-01T05:28:18;14.50;;;6.43;;
20669;SDS011;10494;50.868;4.180;2023-04-01T05:30:45;16.38;;;7.47;;
20669;SDS011;10494;50.868;4.180;2023-04-01T05:33:11;15.65;;;7.00;;
20669;SDS011;10494;50.868;4.180;2023-04-01T05:35:37;13.80;;;6.97;;
20669;SDS011;10494;50.868;4.180;2023-04-01T05:38:04;15.83;;;7.23;;
20669;SDS011;10494;50.868;4.180;2023-04-01T05:40:30;19.40;;;7.97;;
20669;SDS011;10494;50.868;4.180;2023-04-01T05:42:56;21.00;;;8.55;;
20669;SDS011;10494;50.868;4.180;2023-04-01T05:45:22;16.80;;;8.60;;
20669;SDS011;10494;50.868;4.180;2023-04-01T05:47:48;21.77;;;9.87;;
20669;SDS011;10494;50.868;4.180;2023-04-01T05:50:14;19.58;;;10.25;;
20669;SDS011;10494;50.868;4.180;2023-04-01T05:52:40;24.77;;;9.33;;
20669;SDS011;10494;50.868;4.180;2023-04-01T05:55:06;26.15;;;9.38;;
20669;SDS011;10494;50.868;4.180;2023-04-01T05:57:32;24.52;;;10.23;;
20669;SDS011;10494;50.868;4.180;2023-04-01T05:59:57;20.60;;;9.87;;
20669;SDS011;10494;50.868;4.180;2023-04-01T06:02:23;17.75;;;9.32;;
20669;SDS011;10494;50.868;4.180;2023-04-01T06:04:49;17.27;;;9.30;;
20669;SDS011;10494;50.868;4.180;2023-04-01T06:07:28;18.37;;;8.80;;
20669;SDS011;10494;50.868;4.180;2023-04-01T06:09:54;21.75;;;10.52;;
20669;SDS011;10494;50.868;4.180;2023-04-01T06:28:59;20.77;;;9.30;;
20669;SDS011;10494;50.868;4.180;2023-04-01T06:45:36;14.30;;;7.95;;
20669;SDS011;10494;50.868;4.180;2023-04-01T06:50:58;23.02;;;8.18;;
20669;SDS011;10494;50.868;4.180;2023-04-01T06:53:39;16.58;;;7.75;;
20669;SDS011;10494;50.868;4.180;2023-04-01T06:56:17;12.57;;;6.57;;
20669;SDS011;10494;50.868;4.180;2023-04-01T06:58:46;16.35;;;6.43;;
20669;SDS011;10494;50.868;4.180;2023-04-01T07:01:14;14.85;;;6.93;;
20669;SDS011;10494;50.868;4.180;2023-04-01T07:03:53;12.98;;;6.68;;
20669;SDS011;10494;50.868;4.180;2023-04-01T07:06:31;14.30;;;6.85;;
20669;SDS011;10494;50.868;4.180;2023-04-01T07:09:02;10.48;;;5.93;;
20669;SDS011;10494;50.868;4.180;2023-04-01T07:11:34;9.90;;;5.30;;
20669;SDS011;10494;50.868;4.180;2023-04-01T07:25:11;6.53;;;3.60;;
20669;SDS011;10494;50.868;4.180;2023-04-01T07:27:42;8.13;;;4.28;;
20669;SDS011;10494;50.868;4.180;2023-04-01T07:32:47;8.93;;;3.65;;
20669;SDS011;10494;50.868;4.180;2023-04-01T07:35:32;6.00;;;4.15;;
20669;SDS011;10494;50.868;4.180;2023-04-01T07:43:22;7.80;;;2.85;;
20669;SDS011;10494;50.868;4.180;2023-04-01T07:51:49;8.75;;;4.97;;
20669;SDS011;10494;50.868;4.180;2023-04-01T07:57:15;5.87;;;3.73;;
20669;SDS011;10494;50.868;4.180;2023-04-01T08:00:02;4.10;;;3.10;;
20669;SDS011;10494;50.868;4.180;2023-04-01T08:02:40;3.67;;;2.45;;
20669;SDS011;10494;50.868;4.180;2023-04-01T08:05:29;6.90;;;3.13;;
20669;SDS011;10494;50.868;4.180;2023-04-01T08:10:57;5.07;;;3.53;;
20669;SDS011;10494;50.868;4.180;2023-04-01T08:13:58;5.28;;;3.53;;
20669;SDS011;10494;50.868;4.180;2023-04-01T08:22:03;8.82;;;3.83;;
20669;SDS011;10494;50.868;4.180;2023-04-01T08:24:43;5.75;;;2.45;;
20669;SDS011;10494;50.868;4.180;2023-04-01T08:27:21;4.82;;;2.65;;
20669;SDS011;10494;50.868;4.180;2023-04-01T08:30:18;4.75;;;2.88;;
20669;SDS011;10494;50.868;4.180;2023-04-01T08:32:46;5.95;;;4.30;;
20669;SDS011;10494;50.868;4.180;2023-04-01T08:35:26;3.50;;;2.55;;
20669;SDS011;10494;50.868;4.180;2023-04-01T08:38:06;6.20;;;3.88;;
20669;SDS011;10494;50.868;4.180;2023-04-01T08:46:52;3.20;;;2.47;;
20669;SDS011;10494;50.868;4.180;2023-04-01T08:49:54;9.60;;;4.38;;
20669;SDS011;10494;50.868;4.180;2023-04-01T08:52:28;8.20;;;4.57;;
20669;SDS011;10494;50.868;4.180;2023-04-01T09:00:31;5.90;;;4.13;;
20669;SDS011;10494;50.868;4.180;2023-04-01T09:03:23;6.35;;;3.78;;
20669;SDS011;10494;50.868;4.180;2023-04-01T09:08:43;9.82;;;5.07;;
20669;SDS011;10494;50.868;4.180;2023-04-01T09:11:38;7.22;;;4.80;;
20669;SDS011;10494;50.868;4.180;2023-04-01T09:51:17;8.68;;;4.13;;
20669;SDS011;10494;50.868;4.180;2023-04-01T10:02:20;5.38;;;2.15;;
20669;SDS011;10494;50.868;4.180;2023-04-01T10:05:15;3.53;;;1.95;;
20669;SDS011;10494;50.868;4.180;2023-04-01T10:08:18;3.45;;;2.30;;
20669;SDS011;10494;50.868;4.180;2023-04-01T10:11:09;3.80;;;1.98;;
20669;SDS011;10494;50.868;4.180;2023-04-01T10:29:14;4.13;;;1.35;;
20669;SDS011;10494;50.868;4.180;2023-04-01T10:39:34;2.90;;;1.80;;
20669;SDS011;10494;50.868;4.180;2023-04-01T10:59:24;1.75;;;1.40;;
20669;SDS011;10494;50.868;4.180;2023-04-01T11:02:12;4.00;;;1.70;;
20669;SDS011;10494;50.868;4.180;2023-04-01T11:16:47;5.57;;;2.00;;
20669;SDS011;10494;50.868;4.180;2023-04-01T11:35:12;4.47;;;1.65;;
20669;SDS011;10494;50.868;4.180;2023-04-01T11:38:10;4.05;;;1.67;;
20669;SDS011;10494;50.868;4.180;2023-04-01T11:40:59;2.20;;;1.33;;
20669;SDS011;10494;50.868;4.180;2023-04-01T11:43:34;6.53;;;1.90;;
20669;SDS011;10494;50.868;4.180;2023-04-01T11:51:39;4.35;;;1.92;;
20669;SDS011;10494;50.868;4.180;2023-04-01T11:54:38;5.20;;;2.30;;
20669;SDS011;10494;50.868;4.180;2023-04-01T11:57:35;3.70;;;2.67;;
20669;SDS011;10494;50.868;4.180;2023-04-01T12:05:43;4.25;;;2.00;;
20669;SDS011;10494;50.868;4.180;2023-04-01T12:08:42;5.07;;;2.40;;
20669;SDS011;10494;50.868;4.180;2023-04-01T12:17:30;5.13;;;2.60;;
20669;SDS011;10494;50.868;4.180;2023-04-01T12:20:30;8.50;;;2.50;;
20669;SDS011;10494;50.868;4.180;2023-04-01T12:56:40;3.63;;;1.77;;
20669;SDS011;10494;50.868;4.180;2023-04-01T12:59:29;2.63;;;1.60;;
20669;SDS011;10494;50.868;4.180;2023-04-01T13:24:40;2.83;;;1.23;;
20669;SDS011;10494;50.868;4.180;2023-04-01T13:27:20;2.00;;;1.30;;
20669;SDS011;10494;50.868;4.180;2023-04-01T13:32:44;2.95;;;1.70;;
20669;SDS011;10494;50.868;4.180;2023-04-01T13:35:21;3.90;;;2.22;;
20669;SDS011;10494;50.868;4.180;2023-04-01T13:38:37;3.88;;;1.80;;
20669;SDS011;10494;50.868;4.180;2023-04-01T13:43:37;4.53;;;2.92;;
20669;SDS011;10494;50.868;4.180;2023-04-01T13:52:12;3.33;;;2.05;;
20669;SDS011;10494;50.868;4.180;2023-04-01T14:06:19;4.25;;;1.80;;
20669;SDS011;10494;50.868;4.180;2023-04-01T14:11:52;4.18;;;2.08;;
20669;SDS011;10494;50.868;4.180;2023-04-01T14:25:59;4.80;;;2.75;;
20669;SDS011;10494;50.868;4.180;2023-04-01T14:31:34;6.93;;;1.92;;
20669;SDS011;10494;50.868;4.180;2023-04-01T14:34:28;3.22;;;2.00;;
20669;SDS011;10494;50.868;4.180;2023-04-01T14:43:04;4.70;;;2.63;;
20669;SDS011;10494;50.868;4.180;2023-04-01T14:54:41;3.47;;;1.80;;
20669;SDS011;10494;50.868;4.180;2023-04-01T14:59:49;2.92;;;1.50;;
20669;SDS011;10494;50.868;4.180;2023-04-01T15:02:27;2.70;;;1.25;;
20669;SDS011;10494;50.868;4.180;2023-04-01T15:08:15;2.17;;;1.63;;
20669;SDS011;10494;50.868;4.180;2023-04-01T15:30:18;5.05;;;1.30;;
20669;SDS011;10494;50.868;4.180;2023-04-01T15:35:45;2.33;;;1.50;;
20669;SDS011;10494;50.868;4.180;2023-04-01T15:38:36;1.92;;;1.30;;
20669;SDS011;10494;50.868;4.180;2023-04-01T15:41:26;3.90;;;1.90;;
20669;SDS011;10494;50.868;4.180;2023-04-01T16:00:29;3.60;;;1.17;;
20669;SDS011;10494;50.868;4.180;2023-04-01T16:16:19;2.28;;;1.58;;
20669;SDS011;10494;50.868;4.180;2023-04-01T16:21:56;4.35;;;1.40;;
20669;SDS011;10494;50.868;4.180;2023-04-01T16:27:11;3.97;;;1.60;;
20669;SDS011;10494;50.868;4.180;2023-04-01T16:29:49;3.08;;;1.48;;
20669;SDS011;10494;50.868;4.180;2023-04-01T16:34:56;1.80;;;1.27;;
20669;SDS011;10494;50.868;4.180;2023-04-01T16:37:43;3.67;;;1.50;;
20669;SDS011;10494;50.868;4.180;2023-04-01T16:43:28;1.73;;;1.20;;
20669;SDS011;10494;50.868;4.180;2023-04-01T16:46:23;2.75;;;1.73;;
20669;SDS011;10494;50.868;4.180;2023-04-01T16:54:30;6.07;;;2.50;;
20669;SDS011;10494;50.868;4.180;2023-04-01T16:57:17;6.03;;;2.60;;
20669;SDS011;10494;50.868;4.180;2023-04-01T16:59:48;4.68;;;2.50;;
20669;SDS011;10494;50.868;4.180;2023-04-01T17:02:31;5.10;;;3.13;;
20669;SDS011;10494;50.868;4.180;2023-04-01T17:05:08;8.55;;;4.25;;
20669;SDS011;10494;50.868;4.180;2023-04-01T17:07:48;7.63;;;3.42;;
20669;SDS011;10494;50.868;4.180;2023-04-01T17:10:47;4.65;;;2.17;;
20669;SDS011;10494;50.868;4.180;2023-04-01T17:26:15;4.25;;;2.70;;
20669;SDS011;10494;50.868;4.180;2023-04-01T17:29:02;8.80;;;4.35;;
20669;SDS011;10494;50.868;4.180;2023-04-01T17:45:04;6.95;;;3.75;;
20669;SDS011;10494;50.868;4.180;2023-04-01T17:48:14;5.32;;;3.45;;
20669;SDS011;10494;50.868;4.180;2023-04-01T17:50:59;6.95;;;3.55;;
20669;SDS011;10494;50.868;4.180;2023-04-01T18:24:48;7.25;;;3.58;;
20669;SDS011;10494;50.868;4.180;2023-04-01T18:27:38;7.93;;;3.42;;
20669;SDS011;10494;50.868;4.180;2023-04-01T18:30:20;4.82;;;3.00;;
20669;SDS011;10494;50.868;4.180;2023-04-01T18:35:47;10.27;;;4.82;;
20669;SDS011;10494;50.868;4.180;2023-04-01T18:38:29;8.35;;;4.55;;
20669;SDS011;10494;50.868;4.180;2023-04-01T18:44:00;12.37;;;6.07;;
20669;SDS011;10494;50.868;4.180;2023-04-01T18:52:43;11.27;;;4.90;;
20669;SDS011;10494;50.868;4.180;2023-04-01T18:55:18;11.80;;;5.23;;
20669;SDS011;10494;50.868;4.180;2023-04-01T18:57:58;9.23;;;5.45;;
20669;SDS011;10494;50.868;4.180;2023-04-01T19:00:39;10.18;;;5.78;;
20669;SDS011;10494;50.868;4.180;2023-04-01T19:03:23;13.35;;;7.82;;
20669;SDS011;10494;50.868;4.180;2023-04-01T19:05:56;15.00;;;7.93;;
20669;SDS011;10494;50.868;4.180;2023-04-01T19:10:57;14.15;;;9.15;;
20669;SDS011;10494;50.868;4.180;2023-04-01T19:16:25;20.33;;;10.75;;
20669;SDS011;10494;50.868;4.180;2023-04-01T19:19:15;19.10;;;11.70;;
20669;SDS011;10494;50.868;4.180;2023-04-01T19:21:56;22.52;;;12.30;;
20669;SDS011;10494;50.868;4.180;2023-04-01T19:24:43;22.35;;;12.73;;
20669;SDS011;10494;50.868;4.180;2023-04-01T19:30:26;29.77;;;16.13;;
20669;SDS011;10494;50.868;4.180;2023-04-01T19:39:34;35.92;;;17.70;;
20669;SDS011;10494;50.868;4.180;2023-04-01T19:42:03;36.17;;;17.30;;
20669;SDS011;10494;50.868;4.180;2023-04-01T19:47:15;38.90;;;18.58;;
20669;SDS011;10494;50.868;4.180;2023-04-01T19:50:57;44.42;;;19.60;;
20669;SDS011;10494;50.868;4.180;2023-04-01T19:52:55;47.33;;;18.43;;
20669;SDS011;10494;50.868;4.180;2023-04-01T20:00:58;42.22;;;17.27;;
20669;SDS011;10494;50.868;4.180;2023-04-01T20:11:25;45.35;;;17.05;;
20669;SDS011;10494;50.868;4.180;2023-04-01T20:14:20;35.80;;;17.77;;
20669;SDS011;10494;50.868;4.180;2023-04-01T20:24:53;40.67;;;17.30;;
20669;SDS011;10494;50.868;4.180;2023-04-01T20:27:27;32.10;;;15.98;;
20669;SDS011;10494;50.868;4.180;2023-04-01T20:38:10;35.30;;;16.73;;
20669;SDS011;10494;50.868;4.180;2023-04-01T20:43:57;41.70;;;16.80;;
20669;SDS011;10494;50.868;4.180;2023-04-01T20:49:15;40.50;;;19.60;;
20669;SDS011;10494;50.868;4.180;2023-04-01T21:08:10;52.93;;;22.17;;
20669;SDS011;10494;50.868;4.180;2023-04-01T21:21:54;51.00;;;25.43;;
20669;SDS011;10494;50.868;4.180;2023-04-01T21:24:44;59.27;;;22.47;;
20669;SDS011;10494;50.868;4.180;2023-04-01T21:34:30;44.42;;;19.63;;
20669;SDS011;10494;50.868;4.180;2023-04-01T21:37:03;41.47;;;19.87;;
20669;SDS011;10494;50.868;4.180;2023-04-01T21:48:18;30.17;;;16.83;;
20669;SDS011;10494;50.868;4.180;2023-04-01T22:10:15;43.97;;;21.20;;
20669;SDS011;10494;50.868;4.180;2023-04-01T22:13:05;40.35;;;20.45;;
20669;SDS011;10494;50.868;4.180;2023-04-01T22:21:31;40.03;;;21.23;;
20669;SDS011;10494;50.868;4.180;2023-04-01T22:24:13;46.85;;;22.52;;
20669;SDS011;10494;50.868;4.180;2023-04-01T22:26:55;45.63;;;23.07;;
20669;SDS011;10494;50.868;4.180;2023-04-01T22:29:35;35.58;;;19.63;;
20669;SDS011;10494;50.868;4.180;2023-04-01T22:33:05;34.80;;;21.20;;
20669;SDS011;10494;50.868;4.180;2023-04-01T22:35:24;45.42;;;22.95;;
20669;SDS011;10494;50.868;4.180;2023-04-01T22:43:13;43.30;;;19.73;;
20669;SDS011;10494;50.868;4.180;2023-04-01T22:45:56;37.53;;;20.93;;
20669;SDS011;10494;50.868;4.180;2023-04-01T22:51:38;36.17;;;19.97;;
20669;SDS011;10494;50.868;4.180;2023-04-01T22:56:43;37.40;;;20.50;;
20669;SDS011;10494;50.868;4.180;2023-04-01T22:59:30;29.67;;;18.30;;
20669;SDS011;10494;50.868;4.180;2023-04-01T23:02:29;31.37;;;18.77;;
20669;SDS011;10494;50.868;4.180;2023-04-01T23:04:59;28.80;;;18.27;;
20669;SDS011;10494;50.868;4.180;2023-04-01T23:10:02;31.77;;;18.90;;
20669;SDS011;10494;50.868;4.180;2023-04-01T23:12:36;27.63;;;17.67;;
20669;SDS011;10494;50.868;4.180;2023-04-01T23:15:05;27.47;;;18.13;;
20669;SDS011;10494;50.868;4.180;2023-04-01T23:20:50;26.87;;;17.13;;
20669;SDS011;10494;50.868;4.180;2023-04-01T23:28:39;21.67;;;14.73;;
20669;SDS011;10494;50.868;4.180;2023-04-01T23:34:00;22.17;;;14.70;;
20669;SDS011;10494;50.868;4.180;2023-04-01T23:36:28;21.07;;;14.83;;
20669;SDS011;10494;50.868;4.180;2023-04-01T23:38:56;21.63;;;14.40;;
20669;SDS011;10494;50.868;4.180;2023-04-01T23:41:28;21.63;;;14.70;;
20669;SDS011;10494;50.868;4.180;2023-04-01T23:44:04;20.97;;;14.77;;
20669;SDS011;10494;50.868;4.180;2023-04-01T23:46:33;24.27;;;15.67;;
20669;SDS011;10494;50.868;4.180;2023-04-01T23:49:00;22.17;;;14.97;;
20669;SDS011;10494;50.868;4.180;2023-04-01T23:51:28;25.13;;;16.80;;
20669;SDS011;10494;50.868;4.180;2023-04-01T23:54:03;27.17;;;16.30;;
20669;SDS011;10494;50.868;4.180;2023-04-01T23:56:54;30.07;;;18.37;;
